sensor_id;sensor_type;location;lat;lon;timestamp;P1;durP1;ratioP1;P2;durP2;ratioP2
80421;SDS011;69763;50.182;9.144;2023-06-19T00:01:20;9.40;;;7.00;;
80421;SDS011;69763;50.182;9.144;2023-06-19T00:03:45;10.27;;;6.75;;
80421;SDS011;69763;50.182;9.144;2023-06-19T00:06:11;9.13;;;6.45;;
80421;SDS011;69763;50.182;9.144;2023-06-19T00:08:36;11.75;;;6.20;;
80421;SDS011;69763;50.182;9.144;2023-06-19T00:11:03;10.43;;;7.03;;
80421;SDS011;69763;50.182;9.144;2023-06-19T00:13:28;11.90;;;6.90;;
80421;SDS011;69763;50.182;9.144;2023-06-19T00:15:54;9.55;;;6.80;;
80421;SDS011;69763;50.182;9.144;2023-06-19T00:18:19;9.32;;;6.57;;
80421;SDS011;69763;50.182;9.144;2023-06-19T00:20:44;9.48;;;6.53;;
80421;SDS011;69763;50.182;9.144;2023-06-19T00:23:10;9.02;;;6.78;;
80421;SDS011;69763;50.182;9.144;2023-06-19T00:25:35;9.18;;;7.00;;
80421;SDS011;69763;50.182;9.144;2023-06-19T00:28:02;10.35;;;7.28;;
80421;SDS011;69763;50.182;9.144;2023-06-19T00:30:27;11.38;;;7.05;;
80421;SDS011;69763;50.182;9.144;2023-06-19T00:32:53;11.52;;;7.57;;
80421;SDS011;69763;50.182;9.144;2023-06-19T00:35:18;9.15;;;6.88;;
80421;SDS011;69763;50.182;9.144;2023-06-19T00:37:43;8.43;;;6.82;;
80421;SDS011;69763;50.182;9.144;2023-06-19T00:40:09;9.90;;;6.93;;
80421;SDS011;69763;50.182;9.144;2023-06-19T00:42:39;8.73;;;7.00;;
80421;SDS011;69763;50.182;9.144;2023-06-19T00:45:06;9.63;;;6.35;;
80421;SDS011;69763;50.182;9.144;2023-06-19T00:47:33;9.55;;;6.50;;
80421;SDS011;69763;50.182;9.144;2023-06-19T00:49:59;9.65;;;6.82;;
80421;SDS011;69763;50.182;9.144;2023-06-19T00:52:24;12.35;;;7.20;;
80421;SDS011;69763;50.182;9.144;2023-06-19T00:54:50;8.73;;;6.63;;
80421;SDS011;69763;50.182;9.144;2023-06-19T00:57:15;10.35;;;7.05;;
80421;SDS011;69763;50.182;9.144;2023-06-19T00:59:41;11.45;;;6.45;;
80421;SDS011;69763;50.182;9.144;2023-06-19T01:02:08;9.27;;;6.93;;
80421;SDS011;69763;50.182;9.144;2023-06-19T01:04:34;11.32;;;6.85;;
80421;SDS011;69763;50.182;9.144;2023-06-19T01:07:02;8.73;;;7.07;;
80421;SDS011;69763;50.182;9.144;2023-06-19T01:09:34;8.75;;;6.95;;
80421;SDS011;69763;50.182;9.144;2023-06-19T01:12:06;9.27;;;7.20;;
80421;SDS011;69763;50.182;9.144;2023-06-19T01:14:35;9.68;;;7.07;;
80421;SDS011;69763;50.182;9.144;2023-06-19T01:17:05;10.13;;;6.95;;
80421;SDS011;69763;50.182;9.144;2023-06-19T01:19:32;10.95;;;7.20;;
80421;SDS011;69763;50.182;9.144;2023-06-19T01:22:01;9.70;;;6.75;;
80421;SDS011;69763;50.182;9.144;2023-06-19T01:24:27;9.15;;;7.32;;
80421;SDS011;69763;50.182;9.144;2023-06-19T01:26:52;10.40;;;7.10;;
80421;SDS011;69763;50.182;9.144;2023-06-19T01:29:18;11.88;;;7.03;;
80421;SDS011;69763;50.182;9.144;2023-06-19T01:31:45;10.43;;;7.53;;
80421;SDS011;69763;50.182;9.144;2023-06-19T01:34:15;12.85;;;7.90;;
80421;SDS011;69763;50.182;9.144;2023-06-19T01:36:43;10.02;;;6.82;;
80421;SDS011;69763;50.182;9.144;2023-06-19T01:39:10;9.35;;;6.95;;
80421;SDS011;69763;50.182;9.144;2023-06-19T01:41:37;9.82;;;6.57;;
80421;SDS011;69763;50.182;9.144;2023-06-19T01:44:04;9.00;;;6.30;;
80421;SDS011;69763;50.182;9.144;2023-06-19T01:46:30;9.13;;;6.80;;
80421;SDS011;69763;50.182;9.144;2023-06-19T01:48:55;9.05;;;6.72;;
80421;SDS011;69763;50.182;9.144;2023-06-19T01:51:20;10.20;;;7.57;;
80421;SDS011;69763;50.182;9.144;2023-06-19T01:53:46;8.88;;;6.47;;
80421;SDS011;69763;50.182;9.144;2023-06-19T01:56:12;9.10;;;7.10;;
80421;SDS011;69763;50.182;9.144;2023-06-19T01:58:38;9.60;;;6.88;;
80421;SDS011;69763;50.182;9.144;2023-06-19T02:01:03;8.88;;;6.53;;
80421;SDS011;69763;50.182;9.144;2023-06-19T02:03:28;10.93;;;7.53;;
80421;SDS011;69763;50.182;9.144;2023-06-19T02:05:54;9.35;;;7.10;;
80421;SDS011;69763;50.182;9.144;2023-06-19T02:08:19;10.90;;;7.18;;
80421;SDS011;69763;50.182;9.144;2023-06-19T02:10:45;8.40;;;6.30;;
80421;SDS011;69763;50.182;9.144;2023-06-19T02:13:11;11.25;;;7.07;;
80421;SDS011;69763;50.182;9.144;2023-06-19T02:15:37;10.70;;;7.32;;
80421;SDS011;69763;50.182;9.144;2023-06-19T02:18:02;10.57;;;7.53;;
80421;SDS011;69763;50.182;9.144;2023-06-19T02:20:28;12.65;;;8.02;;
80421;SDS011;69763;50.182;9.144;2023-06-19T02:22:54;11.70;;;7.20;;
80421;SDS011;69763;50.182;9.144;2023-06-19T02:25:19;11.63;;;6.80;;
80421;SDS011;69763;50.182;9.144;2023-06-19T02:27:44;9.45;;;6.93;;
80421;SDS011;69763;50.182;9.144;2023-06-19T02:30:12;9.95;;;7.13;;
80421;SDS011;69763;50.182;9.144;2023-06-19T02:32:37;10.60;;;7.15;;
80421;SDS011;69763;50.182;9.144;2023-06-19T02:35:03;10.27;;;7.07;;
80421;SDS011;69763;50.182;9.144;2023-06-19T02:37:29;9.63;;;7.38;;
80421;SDS011;69763;50.182;9.144;2023-06-19T02:39:55;12.18;;;7.20;;
80421;SDS011;69763;50.182;9.144;2023-06-19T02:42:20;11.10;;;7.55;;
80421;SDS011;69763;50.182;9.144;2023-06-19T02:44:45;9.95;;;7.25;;
80421;SDS011;69763;50.182;9.144;2023-06-19T02:47:12;9.88;;;6.97;;
80421;SDS011;69763;50.182;9.144;2023-06-19T02:49:40;11.30;;;7.75;;
80421;SDS011;69763;50.182;9.144;2023-06-19T02:52:06;9.32;;;7.22;;
80421;SDS011;69763;50.182;9.144;2023-06-19T02:54:32;10.65;;;7.15;;
80421;SDS011;69763;50.182;9.144;2023-06-19T02:56:57;10.88;;;7.22;;
80421;SDS011;69763;50.182;9.144;2023-06-19T02:59:23;10.52;;;7.38;;
80421;SDS011;69763;50.182;9.144;2023-06-19T03:01:48;10.43;;;7.63;;
80421;SDS011;69763;50.182;9.144;2023-06-19T03:04:15;11.50;;;7.88;;
80421;SDS011;69763;50.182;9.144;2023-06-19T03:06:40;9.68;;;7.15;;
80421;SDS011;69763;50.182;9.144;2023-06-19T03:09:06;11.93;;;7.18;;
80421;SDS011;69763;50.182;9.144;2023-06-19T03:11:31;10.68;;;7.75;;
80421;SDS011;69763;50.182;9.144;2023-06-19T03:13:56;9.57;;;7.60;;
80421;SDS011;69763;50.182;9.144;2023-06-19T03:16:22;10.45;;;8.15;;
80421;SDS011;69763;50.182;9.144;2023-06-19T03:18:47;13.40;;;7.55;;
80421;SDS011;69763;50.182;9.144;2023-06-19T03:21:14;12.20;;;7.40;;
80421;SDS011;69763;50.182;9.144;2023-06-19T03:23:40;11.90;;;8.20;;
80421;SDS011;69763;50.182;9.144;2023-06-19T03:26:05;14.25;;;8.10;;
80421;SDS011;69763;50.182;9.144;2023-06-19T03:28:31;12.55;;;7.78;;
80421;SDS011;69763;50.182;9.144;2023-06-19T03:30:56;11.32;;;7.75;;
80421;SDS011;69763;50.182;9.144;2023-06-19T03:33:21;11.77;;;7.40;;
80421;SDS011;69763;50.182;9.144;2023-06-19T03:35:47;12.68;;;7.28;;
80421;SDS011;69763;50.182;9.144;2023-06-19T03:38:13;12.27;;;8.57;;
80421;SDS011;69763;50.182;9.144;2023-06-19T03:40:39;10.10;;;7.55;;
80421;SDS011;69763;50.182;9.144;2023-06-19T03:43:04;11.60;;;8.75;;
80421;SDS011;69763;50.182;9.144;2023-06-19T03:45:30;14.13;;;9.40;;
80421;SDS011;69763;50.182;9.144;2023-06-19T03:47:55;13.95;;;8.65;;
80421;SDS011;69763;50.182;9.144;2023-06-19T03:50:21;12.23;;;9.25;;
80421;SDS011;69763;50.182;9.144;2023-06-19T03:52:46;12.07;;;7.90;;
80421;SDS011;69763;50.182;9.144;2023-06-19T03:55:13;12.55;;;8.57;;
80421;SDS011;69763;50.182;9.144;2023-06-19T03:57:38;12.27;;;8.32;;
80421;SDS011;69763;50.182;9.144;2023-06-19T04:00:04;14.05;;;9.15;;
80421;SDS011;69763;50.182;9.144;2023-06-19T04:02:30;14.40;;;8.55;;
80421;SDS011;69763;50.182;9.144;2023-06-19T04:04:56;14.95;;;9.20;;
80421;SDS011;69763;50.182;9.144;2023-06-19T04:07:21;12.48;;;8.55;;
80421;SDS011;69763;50.182;9.144;2023-06-19T04:09:47;12.35;;;8.43;;
80421;SDS011;69763;50.182;9.144;2023-06-19T04:12:13;12.13;;;8.13;;
80421;SDS011;69763;50.182;9.144;2023-06-19T04:14:39;12.27;;;8.55;;
80421;SDS011;69763;50.182;9.144;2023-06-19T04:17:04;17.45;;;8.20;;
80421;SDS011;69763;50.182;9.144;2023-06-19T04:19:30;11.95;;;8.75;;
80421;SDS011;69763;50.182;9.144;2023-06-19T04:21:55;12.95;;;8.48;;
80421;SDS011;69763;50.182;9.144;2023-06-19T04:24:21;11.57;;;8.55;;
80421;SDS011;69763;50.182;9.144;2023-06-19T04:26:46;11.77;;;8.40;;
80421;SDS011;69763;50.182;9.144;2023-06-19T04:29:13;11.18;;;8.40;;
80421;SDS011;69763;50.182;9.144;2023-06-19T04:31:38;13.18;;;8.45;;
80421;SDS011;69763;50.182;9.144;2023-06-19T04:34:04;12.00;;;7.82;;
80421;SDS011;69763;50.182;9.144;2023-06-19T04:36:29;11.40;;;8.25;;
80421;SDS011;69763;50.182;9.144;2023-06-19T04:38:54;11.40;;;8.40;;
80421;SDS011;69763;50.182;9.144;2023-06-19T04:41:20;12.52;;;7.90;;
80421;SDS011;69763;50.182;9.144;2023-06-19T04:43:45;12.23;;;8.50;;
80421;SDS011;69763;50.182;9.144;2023-06-19T04:46:12;10.30;;;8.05;;
80421;SDS011;69763;50.182;9.144;2023-06-19T04:48:37;13.65;;;8.48;;
80421;SDS011;69763;50.182;9.144;2023-06-19T04:51:03;10.50;;;8.00;;
80421;SDS011;69763;50.182;9.144;2023-06-19T04:53:28;11.57;;;8.77;;
80421;SDS011;69763;50.182;9.144;2023-06-19T04:55:54;10.90;;;8.00;;
80421;SDS011;69763;50.182;9.144;2023-06-19T04:58:19;14.00;;;8.52;;
80421;SDS011;69763;50.182;9.144;2023-06-19T05:00:44;9.82;;;7.82;;
80421;SDS011;69763;50.182;9.144;2023-06-19T05:03:11;12.57;;;8.43;;
80421;SDS011;69763;50.182;9.144;2023-06-19T05:05:36;11.18;;;8.02;;
80421;SDS011;69763;50.182;9.144;2023-06-19T05:08:02;10.75;;;8.45;;
80421;SDS011;69763;50.182;9.144;2023-06-19T05:10:27;11.18;;;7.80;;
80421;SDS011;69763;50.182;9.144;2023-06-19T05:12:52;10.52;;;8.32;;
80421;SDS011;69763;50.182;9.144;2023-06-19T05:15:18;9.18;;;7.63;;
80421;SDS011;69763;50.182;9.144;2023-06-19T05:17:43;11.77;;;8.40;;
80421;SDS011;69763;50.182;9.144;2023-06-19T05:20:11;12.18;;;8.35;;
80421;SDS011;69763;50.182;9.144;2023-06-19T05:22:37;11.20;;;7.30;;
80421;SDS011;69763;50.182;9.144;2023-06-19T05:25:03;8.98;;;6.72;;
80421;SDS011;69763;50.182;9.144;2023-06-19T05:27:28;11.00;;;7.80;;
80421;SDS011;69763;50.182;9.144;2023-06-19T05:29:54;13.20;;;6.85;;
80421;SDS011;69763;50.182;9.144;2023-06-19T05:32:19;12.38;;;6.45;;
80421;SDS011;69763;50.182;9.144;2023-06-19T05:34:44;11.27;;;6.38;;
80421;SDS011;69763;50.182;9.144;2023-06-19T05:37:11;11.23;;;7.22;;
80421;SDS011;69763;50.182;9.144;2023-06-19T05:39:36;10.43;;;6.75;;
80421;SDS011;69763;50.182;9.144;2023-06-19T05:42:02;12.85;;;7.97;;
80421;SDS011;69763;50.182;9.144;2023-06-19T05:44:27;10.32;;;7.38;;
80421;SDS011;69763;50.182;9.144;2023-06-19T05:46:53;9.32;;;7.35;;
80421;SDS011;69763;50.182;9.144;2023-06-19T05:49:18;10.38;;;7.30;;
80421;SDS011;69763;50.182;9.144;2023-06-19T05:51:44;13.05;;;7.72;;
80421;SDS011;69763;50.182;9.144;2023-06-19T05:54:10;9.57;;;7.15;;
80421;SDS011;69763;50.182;9.144;2023-06-19T05:56:36;12.15;;;8.63;;
80421;SDS011;69763;50.182;9.144;2023-06-19T05:59:01;12.95;;;7.28;;
80421;SDS011;69763;50.182;9.144;2023-06-19T06:01:27;11.73;;;7.18;;
80421;SDS011;69763;50.182;9.144;2023-06-19T06:03:53;11.65;;;7.00;;
80421;SDS011;69763;50.182;9.144;2023-06-19T06:06:18;10.13;;;6.70;;
80421;SDS011;69763;50.182;9.144;2023-06-19T06:11:10;7.30;;;5.03;;
80421;SDS011;69763;50.182;9.144;2023-06-19T06:13:35;7.93;;;5.32;;
80421;SDS011;69763;50.182;9.144;2023-06-19T06:16:01;10.52;;;6.72;;
80421;SDS011;69763;50.182;9.144;2023-06-19T06:20:51;5.67;;;4.53;;
80421;SDS011;69763;50.182;9.144;2023-06-19T06:23:17;8.45;;;5.22;;
80421;SDS011;69763;50.182;9.144;2023-06-19T06:28:09;7.67;;;4.33;;
80421;SDS011;69763;50.182;9.144;2023-06-19T06:30:34;6.80;;;4.63;;
80421;SDS011;69763;50.182;9.144;2023-06-19T06:32:59;6.20;;;4.50;;
80421;SDS011;69763;50.182;9.144;2023-06-19T06:35:25;7.03;;;4.45;;
80421;SDS011;69763;50.182;9.144;2023-06-19T06:37:50;5.78;;;4.55;;
80421;SDS011;69763;50.182;9.144;2023-06-19T06:40:16;7.15;;;4.82;;
80421;SDS011;69763;50.182;9.144;2023-06-19T06:42:41;7.32;;;4.53;;
80421;SDS011;69763;50.182;9.144;2023-06-19T06:45:08;7.38;;;4.75;;
80421;SDS011;69763;50.182;9.144;2023-06-19T06:47:34;5.65;;;4.18;;
80421;SDS011;69763;50.182;9.144;2023-06-19T06:50:00;6.85;;;4.63;;
80421;SDS011;69763;50.182;9.144;2023-06-19T06:52:25;6.78;;;4.88;;
80421;SDS011;69763;50.182;9.144;2023-06-19T06:54:51;5.22;;;4.50;;
80421;SDS011;69763;50.182;9.144;2023-06-19T06:57:16;6.13;;;4.40;;
80421;SDS011;69763;50.182;9.144;2023-06-19T06:59:41;6.90;;;4.38;;
80421;SDS011;69763;50.182;9.144;2023-06-19T07:02:08;6.40;;;3.92;;
80421;SDS011;69763;50.182;9.144;2023-06-19T07:04:34;5.85;;;4.03;;
80421;SDS011;69763;50.182;9.144;2023-06-19T07:06:59;5.80;;;4.13;;
80421;SDS011;69763;50.182;9.144;2023-06-19T07:09:24;5.85;;;4.20;;
80421;SDS011;69763;50.182;9.144;2023-06-19T07:11:50;5.75;;;4.43;;
80421;SDS011;69763;50.182;9.144;2023-06-19T07:14:15;5.90;;;4.20;;
80421;SDS011;69763;50.182;9.144;2023-06-19T07:16:40;4.80;;;4.30;;
80421;SDS011;69763;50.182;9.144;2023-06-19T07:19:07;7.22;;;4.93;;
80421;SDS011;69763;50.182;9.144;2023-06-19T07:21:33;7.63;;;4.40;;
80421;SDS011;69763;50.182;9.144;2023-06-19T07:23:58;6.78;;;4.70;;
80421;SDS011;69763;50.182;9.144;2023-06-19T07:26:24;6.15;;;4.43;;
80421;SDS011;69763;50.182;9.144;2023-06-19T07:28:49;7.80;;;4.65;;
80421;SDS011;69763;50.182;9.144;2023-06-19T07:31:15;8.73;;;4.40;;
80421;SDS011;69763;50.182;9.144;2023-06-19T07:33:40;5.72;;;4.18;;
80421;SDS011;69763;50.182;9.144;2023-06-19T07:36:07;7.20;;;4.95;;
80421;SDS011;69763;50.182;9.144;2023-06-19T07:38:32;5.72;;;4.22;;
80421;SDS011;69763;50.182;9.144;2023-06-19T07:40:58;6.60;;;3.97;;
80421;SDS011;69763;50.182;9.144;2023-06-19T07:43:23;6.72;;;4.53;;
80421;SDS011;69763;50.182;9.144;2023-06-19T07:45:48;8.27;;;4.07;;
80421;SDS011;69763;50.182;9.144;2023-06-19T07:48:14;8.15;;;4.13;;
80421;SDS011;69763;50.182;9.144;2023-06-19T07:50:39;4.95;;;4.18;;
80421;SDS011;69763;50.182;9.144;2023-06-19T07:53:06;7.43;;;4.05;;
80421;SDS011;69763;50.182;9.144;2023-06-19T07:55:32;6.72;;;4.55;;
80421;SDS011;69763;50.182;9.144;2023-06-19T07:57:57;7.18;;;4.07;;
80421;SDS011;69763;50.182;9.144;2023-06-19T08:00:22;5.95;;;4.47;;
80421;SDS011;69763;50.182;9.144;2023-06-19T08:02:48;5.15;;;4.32;;
80421;SDS011;69763;50.182;9.144;2023-06-19T08:05:13;7.80;;;4.50;;
80421;SDS011;69763;50.182;9.144;2023-06-19T08:07:39;5.57;;;4.28;;
80421;SDS011;69763;50.182;9.144;2023-06-19T08:10:07;6.57;;;4.82;;
80421;SDS011;69763;50.182;9.144;2023-06-19T08:12:33;5.22;;;4.20;;
80421;SDS011;69763;50.182;9.144;2023-06-19T08:14:58;4.75;;;4.00;;
80421;SDS011;69763;50.182;9.144;2023-06-19T08:17:24;6.00;;;4.43;;
80421;SDS011;69763;50.182;9.144;2023-06-19T08:19:49;5.28;;;3.85;;
80421;SDS011;69763;50.182;9.144;2023-06-19T08:22:14;5.57;;;4.07;;
80421;SDS011;69763;50.182;9.144;2023-06-19T08:24:40;6.13;;;3.88;;
80421;SDS011;69763;50.182;9.144;2023-06-19T08:27:07;7.35;;;4.28;;
80421;SDS011;69763;50.182;9.144;2023-06-19T08:29:32;5.47;;;4.43;;
80421;SDS011;69763;50.182;9.144;2023-06-19T08:31:58;6.40;;;4.28;;
80421;SDS011;69763;50.182;9.144;2023-06-19T08:34:24;5.78;;;4.13;;
80421;SDS011;69763;50.182;9.144;2023-06-19T08:36:49;5.85;;;4.13;;
80421;SDS011;69763;50.182;9.144;2023-06-19T08:39:14;4.47;;;3.60;;
80421;SDS011;69763;50.182;9.144;2023-06-19T08:41:40;5.47;;;3.78;;
80421;SDS011;69763;50.182;9.144;2023-06-19T08:44:07;5.05;;;4.28;;
80421;SDS011;69763;50.182;9.144;2023-06-19T08:46:32;5.85;;;3.90;;
80421;SDS011;69763;50.182;9.144;2023-06-19T08:48:58;8.93;;;4.50;;
80421;SDS011;69763;50.182;9.144;2023-06-19T08:51:23;7.78;;;4.20;;
80421;SDS011;69763;50.182;9.144;2023-06-19T08:53:49;4.80;;;3.60;;
80421;SDS011;69763;50.182;9.144;2023-06-19T08:56:19;5.97;;;4.22;;
80421;SDS011;69763;50.182;9.144;2023-06-19T08:58:45;6.35;;;4.22;;
80421;SDS011;69763;50.182;9.144;2023-06-19T09:01:13;5.65;;;4.07;;
80421;SDS011;69763;50.182;9.144;2023-06-19T09:03:41;6.28;;;4.13;;
80421;SDS011;69763;50.182;9.144;2023-06-19T09:06:06;6.32;;;3.90;;
80421;SDS011;69763;50.182;9.144;2023-06-19T09:08:32;7.63;;;3.60;;
80421;SDS011;69763;50.182;9.144;2023-06-19T09:10:58;6.38;;;3.80;;
80421;SDS011;69763;50.182;9.144;2023-06-19T09:13:24;6.03;;;3.80;;
80421;SDS011;69763;50.182;9.144;2023-06-19T09:15:56;6.00;;;4.03;;
80421;SDS011;69763;50.182;9.144;2023-06-19T09:18:24;5.97;;;4.32;;
80421;SDS011;69763;50.182;9.144;2023-06-19T09:20:51;7.93;;;4.20;;
80421;SDS011;69763;50.182;9.144;2023-06-19T09:23:18;5.97;;;3.67;;
80421;SDS011;69763;50.182;9.144;2023-06-19T09:25:44;5.97;;;4.40;;
80421;SDS011;69763;50.182;9.144;2023-06-19T09:28:16;6.82;;;4.10;;
80421;SDS011;69763;50.182;9.144;2023-06-19T09:30:50;5.32;;;3.75;;
80421;SDS011;69763;50.182;9.144;2023-06-19T09:33:16;6.72;;;4.60;;
80421;SDS011;69763;50.182;9.144;2023-06-19T09:35:43;7.15;;;3.88;;
80421;SDS011;69763;50.182;9.144;2023-06-19T09:38:08;9.05;;;4.30;;
80421;SDS011;69763;50.182;9.144;2023-06-19T09:40:35;7.88;;;4.32;;
80421;SDS011;69763;50.182;9.144;2023-06-19T09:43:01;5.32;;;4.05;;
80421;SDS011;69763;50.182;9.144;2023-06-19T09:45:28;5.78;;;4.28;;
80421;SDS011;69763;50.182;9.144;2023-06-19T09:47:55;6.45;;;4.03;;
80421;SDS011;69763;50.182;9.144;2023-06-19T09:50:22;7.32;;;4.20;;
80421;SDS011;69763;50.182;9.144;2023-06-19T09:52:49;5.30;;;4.28;;
80421;SDS011;69763;50.182;9.144;2023-06-19T09:55:15;5.22;;;4.35;;
80421;SDS011;69763;50.182;9.144;2023-06-19T09:57:40;5.20;;;4.45;;
80421;SDS011;69763;50.182;9.144;2023-06-19T10:00:08;5.63;;;4.18;;
80421;SDS011;69763;50.182;9.144;2023-06-19T10:02:35;4.65;;;4.18;;
80421;SDS011;69763;50.182;9.144;2023-06-19T10:05:01;5.00;;;4.03;;
80421;SDS011;69763;50.182;9.144;2023-06-19T10:07:32;12.25;;;5.22;;
80421;SDS011;69763;50.182;9.144;2023-06-19T10:10:00;9.02;;;4.75;;
80421;SDS011;69763;50.182;9.144;2023-06-19T10:12:37;7.20;;;4.78;;
80421;SDS011;69763;50.182;9.144;2023-06-19T10:15:10;5.68;;;4.38;;
80421;SDS011;69763;50.182;9.144;2023-06-19T10:17:37;8.75;;;5.10;;
80421;SDS011;69763;50.182;9.144;2023-06-19T10:20:03;8.55;;;4.72;;
80421;SDS011;69763;50.182;9.144;2023-06-19T10:22:30;10.02;;;4.72;;
80421;SDS011;69763;50.182;9.144;2023-06-19T10:24:55;7.10;;;4.40;;
80421;SDS011;69763;50.182;9.144;2023-06-19T10:27:24;6.13;;;4.85;;
80421;SDS011;69763;50.182;9.144;2023-06-19T10:29:51;6.05;;;5.03;;
80421;SDS011;69763;50.182;9.144;2023-06-19T10:32:17;5.57;;;4.40;;
80421;SDS011;69763;50.182;9.144;2023-06-19T10:34:44;7.15;;;4.63;;
80421;SDS011;69763;50.182;9.144;2023-06-19T10:37:10;8.20;;;4.55;;
80421;SDS011;69763;50.182;9.144;2023-06-19T10:39:35;6.55;;;4.95;;
80421;SDS011;69763;50.182;9.144;2023-06-19T10:42:04;5.70;;;4.82;;
80421;SDS011;69763;50.182;9.144;2023-06-19T10:44:32;9.20;;;5.05;;
80421;SDS011;69763;50.182;9.144;2023-06-19T10:46:57;7.22;;;4.72;;
80421;SDS011;69763;50.182;9.144;2023-06-19T10:49:23;7.13;;;4.50;;
80421;SDS011;69763;50.182;9.144;2023-06-19T10:51:48;6.20;;;4.85;;
80421;SDS011;69763;50.182;9.144;2023-06-19T10:54:13;7.72;;;4.38;;
80421;SDS011;69763;50.182;9.144;2023-06-19T10:56:39;5.40;;;4.35;;
80421;SDS011;69763;50.182;9.144;2023-06-19T10:59:05;8.30;;;4.25;;
80421;SDS011;69763;50.182;9.144;2023-06-19T11:01:34;6.25;;;4.20;;
80421;SDS011;69763;50.182;9.144;2023-06-19T11:04:02;9.80;;;5.03;;
80421;SDS011;69763;50.182;9.144;2023-06-19T11:06:28;6.70;;;4.68;;
80421;SDS011;69763;50.182;9.144;2023-06-19T11:08:54;6.35;;;4.85;;
80421;SDS011;69763;50.182;9.144;2023-06-19T11:11:20;7.88;;;4.25;;
80421;SDS011;69763;50.182;9.144;2023-06-19T11:13:45;7.18;;;5.00;;
80421;SDS011;69763;50.182;9.144;2023-06-19T11:16:10;6.07;;;4.78;;
80421;SDS011;69763;50.182;9.144;2023-06-19T11:18:37;9.07;;;4.60;;
80421;SDS011;69763;50.182;9.144;2023-06-19T11:21:03;5.38;;;4.18;;
80421;SDS011;69763;50.182;9.144;2023-06-19T11:23:28;6.45;;;4.82;;
80421;SDS011;69763;50.182;9.144;2023-06-19T11:26:01;5.53;;;4.47;;
80421;SDS011;69763;50.182;9.144;2023-06-19T11:28:27;5.57;;;4.43;;
80421;SDS011;69763;50.182;9.144;2023-06-19T11:30:57;5.63;;;4.20;;
80421;SDS011;69763;50.182;9.144;2023-06-19T11:33:23;9.05;;;4.25;;
80421;SDS011;69763;50.182;9.144;2023-06-19T11:35:50;5.90;;;4.55;;
80421;SDS011;69763;50.182;9.144;2023-06-19T11:38:17;5.78;;;4.45;;
80421;SDS011;69763;50.182;9.144;2023-06-19T11:40:43;7.75;;;4.38;;
80421;SDS011;69763;50.182;9.144;2023-06-19T11:43:09;5.80;;;4.50;;
80421;SDS011;69763;50.182;9.144;2023-06-19T11:45:44;4.88;;;3.83;;
80421;SDS011;69763;50.182;9.144;2023-06-19T11:48:10;5.57;;;4.68;;
80421;SDS011;69763;50.182;9.144;2023-06-19T11:50:35;11.00;;;4.85;;
80421;SDS011;69763;50.182;9.144;2023-06-19T11:53:02;5.70;;;4.05;;
80421;SDS011;69763;50.182;9.144;2023-06-19T11:55:27;7.65;;;4.32;;
80421;SDS011;69763;50.182;9.144;2023-06-19T11:57:52;7.53;;;4.88;;
80421;SDS011;69763;50.182;9.144;2023-06-19T12:00:18;7.90;;;4.22;;
80421;SDS011;69763;50.182;9.144;2023-06-19T12:02:43;9.68;;;4.88;;
80421;SDS011;69763;50.182;9.144;2023-06-19T12:05:09;7.60;;;4.53;;
80421;SDS011;69763;50.182;9.144;2023-06-19T12:07:35;7.40;;;4.95;;
80421;SDS011;69763;50.182;9.144;2023-06-19T12:10:01;5.65;;;4.22;;
80421;SDS011;69763;50.182;9.144;2023-06-19T12:12:27;5.07;;;4.13;;
80421;SDS011;69763;50.182;9.144;2023-06-19T12:14:52;6.28;;;4.07;;
80421;SDS011;69763;50.182;9.144;2023-06-19T12:17:18;6.97;;;4.70;;
80421;SDS011;69763;50.182;9.144;2023-06-19T12:19:43;5.68;;;4.18;;
80421;SDS011;69763;50.182;9.144;2023-06-19T12:22:08;5.30;;;4.28;;
80421;SDS011;69763;50.182;9.144;2023-06-19T12:24:34;14.73;;;4.78;;
80421;SDS011;69763;50.182;9.144;2023-06-19T12:27:00;7.75;;;4.30;;
80421;SDS011;69763;50.182;9.144;2023-06-19T12:29:26;4.95;;;4.35;;
80421;SDS011;69763;50.182;9.144;2023-06-19T12:31:51;5.22;;;4.53;;
80421;SDS011;69763;50.182;9.144;2023-06-19T12:34:16;11.02;;;5.63;;
80421;SDS011;69763;50.182;9.144;2023-06-19T12:36:42;9.70;;;4.43;;
80421;SDS011;69763;50.182;9.144;2023-06-19T12:39:07;6.50;;;4.75;;
80421;SDS011;69763;50.182;9.144;2023-06-19T12:41:32;6.15;;;4.35;;
80421;SDS011;69763;50.182;9.144;2023-06-19T12:43:59;6.88;;;4.30;;
80421;SDS011;69763;50.182;9.144;2023-06-19T12:46:24;6.05;;;4.20;;
80421;SDS011;69763;50.182;9.144;2023-06-19T12:48:50;6.75;;;4.50;;
80421;SDS011;69763;50.182;9.144;2023-06-19T12:51:16;5.72;;;4.32;;
80421;SDS011;69763;50.182;9.144;2023-06-19T12:53:41;7.13;;;4.47;;
80421;SDS011;69763;50.182;9.144;2023-06-19T12:56:07;4.70;;;4.05;;
80421;SDS011;69763;50.182;9.144;2023-06-19T12:58:32;6.20;;;4.15;;
80421;SDS011;69763;50.182;9.144;2023-06-19T13:00:59;5.05;;;4.32;;
80421;SDS011;69763;50.182;9.144;2023-06-19T13:03:24;6.95;;;4.22;;
80421;SDS011;69763;50.182;9.144;2023-06-19T13:05:50;7.00;;;4.35;;
80421;SDS011;69763;50.182;9.144;2023-06-19T13:08:15;6.53;;;4.35;;
80421;SDS011;69763;50.182;9.144;2023-06-19T13:10:41;6.30;;;4.60;;
80421;SDS011;69763;50.182;9.144;2023-06-19T13:13:06;6.28;;;5.10;;
80421;SDS011;69763;50.182;9.144;2023-06-19T13:15:32;7.68;;;3.85;;
80421;SDS011;69763;50.182;9.144;2023-06-19T13:17:58;8.13;;;4.45;;
80421;SDS011;69763;50.182;9.144;2023-06-19T13:20:24;5.80;;;4.40;;
80421;SDS011;69763;50.182;9.144;2023-06-19T13:22:49;8.25;;;4.60;;
80421;SDS011;69763;50.182;9.144;2023-06-19T13:25:14;5.43;;;4.40;;
80421;SDS011;69763;50.182;9.144;2023-06-19T13:27:40;7.47;;;4.57;;
80421;SDS011;69763;50.182;9.144;2023-06-19T13:30:06;5.78;;;4.35;;
80421;SDS011;69763;50.182;9.144;2023-06-19T13:32:32;5.88;;;4.50;;
80421;SDS011;69763;50.182;9.144;2023-06-19T13:34:59;5.80;;;4.40;;
80421;SDS011;69763;50.182;9.144;2023-06-19T13:37:24;5.78;;;4.78;;
80421;SDS011;69763;50.182;9.144;2023-06-19T13:39:50;6.32;;;4.57;;
80421;SDS011;69763;50.182;9.144;2023-06-19T13:42:15;8.15;;;4.40;;
80421;SDS011;69763;50.182;9.144;2023-06-19T13:44:40;6.18;;;4.40;;
80421;SDS011;69763;50.182;9.144;2023-06-19T13:47:06;7.15;;;4.75;;
80421;SDS011;69763;50.182;9.144;2023-06-19T13:49:32;6.00;;;4.18;;
80421;SDS011;69763;50.182;9.144;2023-06-19T13:51:58;4.88;;;4.15;;
80421;SDS011;69763;50.182;9.144;2023-06-19T13:54:24;8.30;;;4.65;;
80421;SDS011;69763;50.182;9.144;2023-06-19T13:56:49;6.15;;;4.10;;
80421;SDS011;69763;50.182;9.144;2023-06-19T13:59:15;5.00;;;3.97;;
80421;SDS011;69763;50.182;9.144;2023-06-19T14:01:40;5.55;;;3.80;;
80421;SDS011;69763;50.182;9.144;2023-06-19T14:04:06;6.35;;;4.50;;
80421;SDS011;69763;50.182;9.144;2023-06-19T14:06:31;6.20;;;4.10;;
80421;SDS011;69763;50.182;9.144;2023-06-19T14:08:58;8.50;;;4.30;;
80421;SDS011;69763;50.182;9.144;2023-06-19T14:11:23;5.63;;;4.10;;
80421;SDS011;69763;50.182;9.144;2023-06-19T14:13:49;5.32;;;4.13;;
80421;SDS011;69763;50.182;9.144;2023-06-19T14:16:14;6.65;;;3.90;;
80421;SDS011;69763;50.182;9.144;2023-06-19T14:18:40;5.60;;;3.60;;
80421;SDS011;69763;50.182;9.144;2023-06-19T14:21:05;8.18;;;3.80;;
80421;SDS011;69763;50.182;9.144;2023-06-19T14:23:31;5.90;;;4.38;;
80421;SDS011;69763;50.182;9.144;2023-06-19T14:25:58;7.10;;;4.05;;
80421;SDS011;69763;50.182;9.144;2023-06-19T14:28:24;8.73;;;4.40;;
80421;SDS011;69763;50.182;9.144;2023-06-19T14:30:49;4.63;;;3.63;;
80421;SDS011;69763;50.182;9.144;2023-06-19T14:33:14;6.90;;;4.32;;
80421;SDS011;69763;50.182;9.144;2023-06-19T14:35:40;7.32;;;4.35;;
80421;SDS011;69763;50.182;9.144;2023-06-19T14:38:05;5.43;;;4.07;;
80421;SDS011;69763;50.182;9.144;2023-06-19T14:40:31;4.32;;;3.70;;
80421;SDS011;69763;50.182;9.144;2023-06-19T14:42:57;8.85;;;3.80;;